Time;durP1;ratioP1;P1;durP2;ratioP2;P2;SDS_P1;SDS_P2;PMS_P1;PMS_P2;Temp;Humidity;BMP_temperature;BMP_pressure;BME280_temperature;BME280_humidity;BME280_pressure;Samples;Min_cycle;Max_cycle;Signal;HPM_P1;HPM_P2
2022/07/23 00:00:33;;;;;;;2.80;2.10;;;;;;;15.50;71.84;99014.23;104604;1276;75673;-25
2022/07/23 00:03:05;;;;;;;2.20;1.90;;;;;;;15.28;72.09;99017.77;104647;1274;61070;-25
2022/07/23 00:05:33;;;;;;;2.60;2.00;;;;;;;14.94;73.25;99021.61;104689;1273;61897;-25
2022/07/23 00:08:02;;;;;;;2.20;2.00;;;;;;;14.62;73.29;99019.86;104984;1274;76706;-25
2022/07/23 00:10:30;;;;;;;1.90;1.30;;;;;;;14.40;74.55;99015.05;104555;1275;76918;-25
2022/07/23 00:12:57;;;;;;;2.50;1.60;;;;;;;14.78;74.87;99015.88;104625;1273;74358;-25
2022/07/23 00:15:24;;;;;;;4.10;1.60;;;;;;;15.28;73.81;99019.08;104683;1274;62830;-25
2022/07/23 00:17:52;;;;;;;2.30;2.00;;;;;;;15.37;74.11;99016.87;104934;1274;61737;-25
2022/07/23 00:20:19;;;;;;;2.30;2.00;;;;;;;15.19;75.25;99016.58;104945;1274;76473;-25
2022/07/23 00:22:52;;;;;;;3.00;1.80;;;;;;;14.95;73.31;99012.09;104916;1274;76768;-25
2022/07/23 00:25:20;;;;;;;2.60;1.80;;;;;;;14.70;74.12;99011.80;104647;1273;74200;-25
2022/07/23 00:27:58;;;;;;;1.70;1.30;;;;;;;14.51;75.79;99011.57;104718;1274;64585;-25
2022/07/23 00:30:26;;;;;;;1.70;1.40;;;;;;;14.95;75.28;99012.30;104804;1274;63078;-25
2022/07/23 00:32:58;;;;;;;8.00;1.70;;;;;;;15.43;72.82;99013.45;104767;1273;75587;-25
2022/07/23 00:35:27;;;;;;;2.90;1.80;;;;;;;15.44;72.23;99015.06;104676;1274;77254;-25
2022/07/23 00:37:55;;;;;;;4.30;1.80;;;;;;;15.24;71.04;99017.73;104501;1274;73772;-25
2022/07/23 00:40:22;;;;;;;1.90;1.70;;;;;;;14.89;70.97;99013.55;104625;1274;62870;-25
2022/07/23 00:42:51;;;;;;;2.40;1.80;;;;;;;14.53;72.30;99015.67;104459;1274;62748;-25
2022/07/23 00:45:19;;;;;;;2.90;2.20;;;;;;;14.22;74.00;99020.14;104407;1276;75419;-25
2022/07/23 00:47:46;;;;;;;2.60;1.90;;;;;;;14.00;74.72;99022.34;104606;1274;76917;-25
2022/07/23 00:50:14;;;;;;;4.00;1.70;;;;;;;14.40;75.33;99018.68;104823;1274;75179;-25
2022/07/23 00:52:41;;;;;;;2.80;1.80;;;;;;;14.93;73.79;99022.13;104878;1274;62949;-26
2022/07/23 00:55:09;;;;;;;1.70;1.50;;;;;;;14.95;72.61;99022.38;104628;1273;62090;-25
2022/07/23 00:57:37;;;;;;;3.30;2.20;;;;;;;14.78;73.02;99018.03;104437;1274;75705;-25
2022/07/23 01:00:06;;;;;;;3.10;2.00;;;;;;;14.58;74.16;99014.19;104422;1273;76966;-25
2022/07/23 01:02:33;;;;;;;3.50;2.00;;;;;;;14.37;74.79;99011.63;104469;1274;75187;-25
2022/07/23 01:05:01;;;;;;;3.60;1.50;;;;;;;14.19;75.04;99015.48;104514;1273;64789;-25
2022/07/23 01:07:29;;;;;;;1.90;1.30;;;;;;;14.58;74.49;99021.68;104614;1274;62783;-25
2022/07/23 01:09:56;;;;;;;1.80;1.50;;;;;;;15.08;72.54;99025.17;104622;1274;75541;-25
2022/07/23 01:12:24;;;;;;;2.30;1.70;;;;;;;15.12;72.19;99029.65;104639;1274;77087;-25
2022/07/23 01:14:58;;;;;;;3.00;1.90;;;;;;;14.90;72.71;99027.13;104563;1274;74168;-25
2022/07/23 01:17:27;;;;;;;2.80;2.30;;;;;;;14.53;74.95;99029.86;104338;1274;61128;-25
2022/07/23 01:19:55;;;;;;;3.60;1.90;;;;;;;14.24;76.02;99032.70;104845;1273;61731;-25
2022/07/23 01:22:22;;;;;;;3.50;1.50;;;;;;;14.03;75.69;99035.00;104717;1274;75314;-25
2022/07/23 01:24:50;;;;;;;4.80;1.40;;;;;;;14.38;75.14;99037.20;104602;1274;77057;-25
2022/07/23 01:27:22;;;;;;;3.50;2.00;;;;;;;14.87;74.08;99032.48;104882;1274;73639;-25
2022/07/23 01:29:54;;;;;;;2.90;2.20;;;;;;;14.85;74.17;99028.66;104823;1273;61839;-25
2022/07/23 01:32:22;;;;;;;4.20;1.90;;;;;;;14.59;74.68;99029.23;104839;1274;62710;-25
2022/07/23 01:34:50;;;;;;;4.20;2.00;;;;;;;14.31;75.43;99028.60;104708;1274;76533;-25
2022/07/23 01:37:18;;;;;;;2.40;2.00;;;;;;;14.08;75.02;99028.27;104873;1272;76288;-25
2022/07/23 01:39:46;;;;;;;1.60;1.50;;;;;;;13.88;75.23;99030.91;104725;1274;75329;-25
2022/07/23 01:42:13;;;;;;;1.50;1.20;;;;;;;14.26;75.35;99026.70;105049;1274;62748;-25
2022/07/23 01:44:41;;;;;;;4.80;1.90;;;;;;;14.73;73.35;99023.95;105091;1274;61608;-25
2022/07/23 01:47:14;;;;;;;4.60;2.00;;;;;;;14.76;73.57;99020.66;105036;1274;76674;-25
2022/07/23 01:49:44;;;;;;;2.20;1.90;;;;;;;14.55;73.91;99020.35;104815;1274;76725;-25
2022/07/23 01:52:32;;;;;;;3.70;2.20;;;;;;;14.23;74.49;99023.67;104683;1274;75387;-25
2022/07/23 01:54:59;;;;;;;6.90;2.10;;;;;;;13.95;75.17;99025.47;104536;1274;62066;-25
2022/07/23 01:57:27;;;;;;;1.40;1.30;;;;;;;13.72;75.94;99022.92;104532;1274;62939;-25
2022/07/23 01:59:54;;;;;;;2.10;1.20;;;;;;;14.05;76.18;99018.39;104928;1274;74270;-25
2022/07/23 02:02:22;;;;;;;4.10;1.80;;;;;;;14.50;74.72;99021.36;105033;1274;77070;-25
2022/07/23 02:04:49;;;;;;;2.40;1.50;;;;;;;14.53;73.44;99022.38;104925;1274;75400;-25
2022/07/23 02:07:17;;;;;;;2.30;1.90;;;;;;;14.29;73.52;99030.22;104705;1274;62899;-25
2022/07/23 02:09:46;;;;;;;4.50;2.00;;;;;;;13.95;74.57;99032.49;104632;1274;63013;-25
2022/07/23 02:12:14;;;;;;;3.60;1.90;;;;;;;13.61;74.78;99033.03;104725;1274;76868;-25
2022/07/23 02:14:44;;;;;;;1.50;1.40;;;;;;;13.36;75.63;99033.02;104730;1274;77000;-25
2022/07/23 02:17:11;;;;;;;3.10;1.70;;;;;;;13.70;76.22;99031.86;104607;1274;75448;-25
2022/07/23 02:19:39;;;;;;;1.60;1.30;;;;;;;14.19;74.91;99028.08;104751;1274;61080;-25
2022/07/23 02:22:06;;;;;;;2.40;1.50;;;;;;;14.21;73.38;99028.56;104557;1274;63050;-25
2022/07/23 02:24:34;;;;;;;3.80;1.90;;;;;;;14.03;73.56;99029.98;104613;1274;76672;-25
2022/07/23 02:27:01;;;;;;;2.50;1.80;;;;;;;13.79;74.12;99028.58;104932;1274;75893;-25
2022/07/23 02:29:28;;;;;;;2.00;1.70;;;;;;;13.54;75.60;99030.85;104655;1275;74457;-25
2022/07/23 02:31:57;;;;;;;2.70;1.40;;;;;;;13.33;76.81;99035.56;104559;1274;379082;-25
2022/07/23 02:34:24;;;;;;;2.60;1.60;;;;;;;13.77;76.45;99035.89;104823;1275;62033;-25
2022/07/23 02:36:52;;;;;;;2.60;1.80;;;;;;;14.32;74.61;99024.18;104880;1274;76838;-25
2022/07/23 02:39:19;;;;;;;2.40;1.90;;;;;;;14.42;73.67;99030.50;104962;1274;77325;-25
2022/07/23 02:41:48;;;;;;;2.40;2.00;;;;;;;14.31;73.56;99030.75;104870;1274;74217;-25
2022/07/23 02:44:15;;;;;;;2.90;2.20;;;;;;;14.10;74.46;99024.90;104805;1274;62000;-25
2022/07/23 02:46:45;;;;;;;3.50;2.20;;;;;;;13.91;75.35;99023.98;104688;1274;61994;-25
2022/07/23 02:49:12;;;;;;;2.70;1.40;;;;;;;13.83;75.80;99024.67;104930;1274;76914;-25
2022/07/23 02:51:39;;;;;;;2.20;1.40;;;;;;;14.54;75.01;99022.27;104880;1274;76868;-25
2022/07/23 02:54:07;;;;;;;2.30;1.70;;;;;;;15.43;72.41;99027.77;104686;1274;75391;-25
2022/07/23 02:56:35;;;;;;;2.60;2.00;;;;;;;15.88;70.80;99028.84;105091;1273;62138;-25
2022/07/23 02:59:02;;;;;;;3.00;1.90;;;;;;;16.04;69.27;99027.98;104719;1274;62008;-25
2022/07/23 03:01:31;;;;;;;3.30;2.10;;;;;;;16.06;68.74;99026.80;105081;1274;75386;-25
2022/07/23 03:03:59;;;;;;;4.00;2.00;;;;;;;16.05;68.61;99028.11;104755;1274;76990;-25
2022/07/23 03:06:26;;;;;;;2.70;2.00;;;;;;;16.03;68.02;99034.41;104628;1274;74327;-25
2022/07/23 03:08:54;;;;;;;1.50;1.40;;;;;;;16.09;68.38;99032.45;104604;1274;64964;-25
2022/07/23 03:11:21;;;;;;;5.10;1.70;;;;;;;16.74;67.76;99031.66;104599;1274;60976;-25
2022/07/23 03:13:49;;;;;;;1.90;1.40;;;;;;;17.53;65.35;99029.55;104717;1274;75457;-25
2022/07/23 03:16:16;;;;;;;5.20;1.80;;;;;;;17.70;64.39;99032.19;104661;1274;76886;-25
2022/07/23 03:18:44;;;;;;;3.30;1.80;;;;;;;17.64;64.71;99037.00;104768;1274;73303;-25
2022/07/23 03:21:12;;;;;;;6.20;2.10;;;;;;;17.43;64.35;99039.83;104797;1274;61268;-25
2022/07/23 03:23:40;;;;;;;6.10;2.50;;;;;;;17.20;65.10;99040.84;104638;1274;63136;-25
2022/07/23 03:26:07;;;;;;;7.00;2.40;;;;;;;17.25;65.42;99040.42;104672;1274;76297;-25
2022/07/23 03:28:35;;;;;;;4.20;2.10;;;;;;;17.35;65.37;99039.99;104910;1271;76912;-25
2022/07/23 03:31:04;;;;;;;3.20;2.10;;;;;;;17.49;64.68;99038.58;105029;1274;75100;-25
2022/07/23 03:33:32;;;;;;;3.10;1.80;;;;;;;17.63;64.86;99042.96;105130;1272;63193;-25
2022/07/23 03:36:00;;;;;;;3.20;1.90;;;;;;;18.24;64.30;99040.25;105138;1274;62765;-25
2022/07/23 03:38:34;;;;;;;2.20;1.70;;;;;;;18.99;62.48;99040.27;104654;1274;76396;-25
2022/07/23 03:41:03;;;;;;;5.20;2.40;;;;;;;19.36;61.37;99040.42;104778;1274;74968;-25
2022/07/23 03:43:32;;;;;;;4.00;2.20;;;;;;;19.40;61.60;99036.66;104734;1274;75386;-25
2022/07/23 03:45:59;;;;;;;6.50;2.20;;;;;;;19.32;62.32;99038.90;104975;1274;62015;-24
2022/07/23 03:48:26;;;;;;;5.40;2.30;;;;;;;19.38;62.14;99040.19;104745;1274;63002;-25
2022/07/23 03:50:54;;;;;;;4.10;2.50;;;;;;;19.49;61.74;99043.45;104660;1274;76869;-25
2022/07/23 03:53:21;;;;;;;7.10;2.60;;;;;;;19.58;61.50;99042.03;104745;1274;76940;-25
2022/07/23 03:55:49;;;;;;;9.00;2.90;;;;;;;19.71;61.22;99042.85;104728;1274;75428;-25
2022/07/23 04:00:24;;;;;;;18.00;3.30;;;;;;;19.83;60.83;99037.95;101548;1307;600476;-24
2022/07/23 04:02:52;;;;;;;14.50;3.90;;;;;;;19.92;60.58;99035.91;103944;1286;61165;-23
2022/07/23 04:05:25;;;;;;;;;;;;;;;20.04;60.58;99033.13;104310;1284;63177;-24
2022/07/23 04:07:59;;;;;;;15.30;4.10;;;;;;;20.01;60.43;99038.45;103968;1286;74991;-23
2022/07/23 04:10:26;;;;;;;17.20;4.80;;;;;;;19.87;61.28;99037.19;104240;1286;76532;-23
2022/07/23 04:12:54;;;;;;;25.00;6.00;;;;;;;19.80;61.79;99037.50;103738;1286;338268;-24
2022/07/23 04:15:21;;;;;;;17.70;5.60;;;;;;;19.87;61.22;99036.79;104302;1283;62868;-23
2022/07/23 04:17:51;;;;;;;9.50;4.20;;;;;;;20.04;61.18;99040.80;104691;1275;62938;-23
2022/07/23 04:20:19;;;;;;;11.80;4.60;;;;;;;20.13;60.74;99042.67;104616;1276;74924;-23
2022/07/23 04:22:53;;;;;;;12.70;4.00;;;;;;;19.72;61.36;99045.30;104652;1274;76983;-23
2022/07/23 04:25:21;;;;;;;8.50;4.40;;;;;;;19.68;62.64;99048.17;104632;1277;75432;-24
2022/07/23 04:27:49;;;;;;;26.50;6.20;;;;;;;20.17;61.60;99046.80;104629;1276;61935;-24
2022/07/23 04:30:17;;;;;;;22.20;5.90;;;;;;;20.41;61.06;99045.08;104508;1276;61272;-23
2022/07/23 04:32:44;;;;;;;16.00;5.40;;;;;;;20.51;60.50;99043.89;104637;1277;74820;-23
2022/07/23 04:35:20;;;;;;;17.60;5.90;;;;;;;20.55;60.06;99044.82;104667;1277;77000;-23
2022/07/23 04:37:49;;;;;;;15.80;6.20;;;;;;;20.75;60.59;99040.45;104698;1276;75426;-24
2022/07/23 04:40:17;;;;;;;20.00;6.40;;;;;;;21.05;59.70;99038.67;104676;1276;61790;-23
2022/07/23 04:42:45;;;;;;;19.00;7.00;;;;;;;21.27;59.33;99038.16;104568;1276;62038;-23
2022/07/23 04:45:12;;;;;;;21.90;7.50;;;;;;;21.49;58.96;99040.71;104672;1275;74699;-24
2022/07/23 04:47:40;;;;;;;19.10;6.20;;;;;;;21.68;58.55;99043.79;104563;1276;76977;-23
2022/07/23 04:50:11;;;;;;;22.60;6.50;;;;;;;21.84;58.15;99050.09;104651;1277;75371;-24
2022/07/23 04:52:39;;;;;;;16.40;6.50;;;;;;;22.04;57.87;99050.98;104593;1276;61759;-23
2022/07/23 04:55:07;;;;;;;17.30;6.30;;;;;;;22.23;57.45;99050.31;104679;1276;61151;-24
2022/07/23 04:57:34;;;;;;;18.40;6.40;;;;;;;22.19;57.14;99047.94;104675;1277;74589;-23
2022/07/23 05:00:03;;;;;;;14.10;5.80;;;;;;;22.29;57.19;99047.06;104261;1278;76181;-23
2022/07/23 05:02:31;;;;;;;17.40;6.00;;;;;;;22.24;55.34;99050.23;103967;1279;75423;-23
2022/07/23 05:04:58;;;;;;;12.70;5.80;;;;;;;22.02;56.36;99056.06;104641;1278;62068;-24
2022/07/23 05:07:26;;;;;;;19.80;6.40;;;;;;;22.08;56.15;99054.48;104858;1273;61583;-25
2022/07/23 05:09:54;;;;;;;13.20;5.00;;;;;;;22.21;56.26;99057.51;104678;1273;75905;-23
2022/07/23 05:12:21;;;;;;;12.40;5.20;;;;;;;22.33;56.23;99063.14;104660;1273;76829;-23
2022/07/23 05:14:49;;;;;;;11.00;4.80;;;;;;;22.25;54.91;99058.39;104819;1274;75304;-23
2022/07/23 05:17:17;;;;;;;13.80;5.40;;;;;;;22.23;55.97;99054.61;104933;1274;61810;-23
2022/07/23 05:19:44;;;;;;;9.30;5.40;;;;;;;22.26;55.72;99054.94;104791;1274;62614;-25
2022/07/23 05:22:12;;;;;;;12.90;5.60;;;;;;;22.26;55.67;99055.59;104759;1277;74672;-25
2022/07/23 05:24:39;;;;;;;9.20;4.90;;;;;;;22.34;55.56;99052.38;104723;1274;77115;-23
2022/07/23 05:27:07;;;;;;;10.60;5.10;;;;;;;22.48;55.68;99051.72;104569;1276;75298;-23
2022/07/23 05:29:35;;;;;;;11.50;5.60;;;;;;;22.73;55.70;99049.69;104628;1274;62060;-23
2022/07/23 05:32:02;;;;;;;13.20;4.80;;;;;;;23.12;54.96;99048.23;104650;1273;61913;-23
2022/07/23 05:34:30;;;;;;;10.00;4.30;;;;;;;23.51;53.98;99048.84;104376;1276;75705;-23
2022/07/23 05:36:58;;;;;;;9.70;5.10;;;;;;;23.86;52.91;99047.42;104731;1274;77021;-23
2022/07/23 05:39:25;;;;;;;12.70;4.90;;;;;;;24.23;52.79;99047.91;104640;1274;75304;-24
2022/07/23 05:41:52;;;;;;;13.20;5.70;;;;;;;24.59;51.31;99045.40;104577;1274;61184;-23
2022/07/23 05:44:20;;;;;;;8.10;4.90;;;;;;;24.83;50.86;99044.90;104689;1277;62083;-25
2022/07/23 05:46:48;;;;;;;13.90;5.10;;;;;;;24.95;50.59;99044.66;104786;1274;74616;-23
2022/07/23 05:49:19;;;;;;;8.10;4.80;;;;;;;25.15;50.16;99043.98;104628;1277;77102;-23
2022/07/23 05:51:46;;;;;;;11.80;4.10;;;;;;;25.31;49.67;99043.44;104911;1274;73148;-23
2022/07/23 05:54:15;;;;;;;11.10;4.30;;;;;;;25.40;48.31;99044.04;104735;1274;62611;-23
2022/07/23 05:56:42;;;;;;;6.20;4.10;;;;;;;25.24;49.07;99043.34;104858;1274;62742;-23
2022/07/23 05:59:12;;;;;;;7.70;3.40;;;;;;;25.41;48.77;99044.37;104835;1271;75972;-23
2022/07/23 06:01:40;;;;;;;8.10;4.10;;;;;;;25.28;46.44;99042.78;104686;1275;75785;-23
2022/07/23 06:04:09;;;;;;;6.80;3.40;;;;;;;25.21;48.19;99040.10;104727;1271;74437;-23
2022/07/23 06:06:41;;;;;;;6.30;3.30;;;;;;;25.25;47.00;99038.77;104747;1272;62701;-23
2022/07/23 06:09:10;;;;;;;4.80;2.70;;;;;;;25.35;45.87;99039.73;104964;1271;61990;-23
2022/07/23 06:11:38;;;;;;;5.90;3.00;;;;;;;25.20;46.45;99034.98;105090;1273;76066;-23
2022/07/23 06:14:05;;;;;;;6.00;2.80;;;;;;;25.48;45.85;99040.92;104789;1273;76866;-23
2022/07/23 06:16:46;;;;;;;5.10;2.70;;;;;;;25.70;45.78;99038.16;104985;1274;73560;-23
2022/07/23 06:19:13;;;;;;;4.20;2.40;;;;;;;25.90;45.09;99036.18;104870;1274;62793;-23
2022/07/23 06:21:41;;;;;;;6.20;3.00;;;;;;;25.91;44.83;99036.28;104755;1274;61064;-23
2022/07/23 06:24:14;;;;;;;4.90;2.70;;;;;;;26.05;44.65;99036.58;104757;1272;75625;-23
2022/07/23 06:26:42;;;;;;;4.10;2.50;;;;;;;26.13;43.95;99031.77;104600;1272;75389;-22
2022/07/23 06:29:09;;;;;;;5.00;2.40;;;;;;;26.26;43.45;99032.13;104773;1271;75131;-23
2022/07/23 06:31:37;;;;;;;3.60;2.60;;;;;;;26.24;41.67;99031.21;104955;1272;63118;-23
2022/07/23 06:34:05;;;;;;;4.00;2.40;;;;;;;26.23;42.66;99034.06;104996;1271;63238;-23
2022/07/23 06:36:34;;;;;;;4.30;2.50;;;;;;;26.28;43.00;99033.66;104709;1273;74501;-23
2022/07/23 06:39:02;;;;;;;5.70;2.20;;;;;;;26.57;42.79;99035.37;104962;1273;77117;-23
2022/07/23 06:41:31;;;;;;;3.90;2.20;;;;;;;26.87;41.73;99034.68;104649;1271;74301;-23
2022/07/23 06:43:59;;;;;;;2.90;2.30;;;;;;;27.23;41.81;99029.15;104837;1274;61980;-23
2022/07/23 06:46:29;;;;;;;3.30;2.40;;;;;;;27.51;40.94;99028.73;104746;1271;63043;-23
2022/07/23 06:48:56;;;;;;;3.50;2.00;;;;;;;27.57;40.48;99028.17;104884;1271;74632;-23
2022/07/23 06:51:23;;;;;;;1.90;1.80;;;;;;;27.74;37.86;99030.25;104557;1274;77046;-24
2022/07/23 06:53:51;;;;;;;2.40;1.60;;;;;;;27.87;37.46;99029.88;104698;1272;75624;-23
2022/07/23 06:56:18;;;;;;;1.90;1.70;;;;;;;28.01;38.01;99030.89;105041;1272;62956;-23
2022/07/23 06:58:46;;;;;;;2.50;1.80;;;;;;;28.19;38.07;99029.83;105030;1271;61976;-23
2022/07/23 07:01:13;;;;;;;3.00;1.90;;;;;;;28.18;38.46;99032.52;104785;1274;75989;-23
2022/07/23 07:03:41;;;;;;;2.80;1.80;;;;;;;28.17;38.91;99032.86;104657;1272;76946;-23
2022/07/23 07:06:08;;;;;;;2.20;1.70;;;;;;;28.29;37.43;99032.05;104704;1274;75426;-23
2022/07/23 07:08:36;;;;;;;3.90;2.20;;;;;;;28.39;37.97;99026.38;104817;1272;63040;-23
2022/07/23 07:11:04;;;;;;;2.50;1.70;;;;;;;28.45;37.71;99025.91;104714;1271;62819;-23
2022/07/23 07:13:31;;;;;;;2.40;2.10;;;;;;;28.39;37.95;99025.55;104670;1271;75520;-23
2022/07/23 07:15:59;;;;;;;2.00;1.80;;;;;;;28.30;37.68;99022.95;104906;1271;77216;-23
2022/07/23 07:18:26;;;;;;;4.40;2.00;;;;;;;28.06;39.35;99022.52;105019;1272;75232;-23
2022/07/23 07:20:54;;;;;;;3.90;1.70;;;;;;;28.23;38.60;99026.15;105016;1272;61186;-23
2022/07/23 07:23:23;;;;;;;2.20;1.70;;;;;;;28.50;38.36;99026.43;104981;1274;63224;-23
2022/07/23 07:25:53;;;;;;;2.20;1.60;;;;;;;28.80;37.23;99024.06;104712;1272;75814;-23
2022/07/23 07:28:20;;;;;;;1.70;1.40;;;;;;;29.05;36.46;99028.27;104863;1272;75701;-23
2022/07/23 07:30:47;;;;;;;1.80;1.50;;;;;;;29.25;35.83;99030.50;105051;1271;75470;-23
2022/07/23 07:33:15;;;;;;;1.80;1.30;;;;;;;29.37;35.52;99024.55;104899;1274;63032;-22
2022/07/23 07:35:43;;;;;;;1.50;1.30;;;;;;;29.58;34.84;99022.55;105000;1272;61942;-23
2022/07/23 07:38:10;;;;;;;1.40;1.30;;;;;;;29.59;34.89;99027.70;104987;1271;76201;-23
2022/07/23 07:40:37;;;;;;;1.60;1.40;;;;;;;29.70;33.85;99029.70;104960;1271;76062;-23
2022/07/23 07:43:05;;;;;;;1.90;1.20;;;;;;;29.86;33.62;99032.55;105034;1271;75415;-23
2022/07/23 07:45:32;;;;;;;5.50;1.50;;;;;;;30.05;34.10;99024.48;105055;1273;61774;-23
2022/07/23 07:47:59;;;;;;;1.70;1.10;;;;;;;30.19;33.68;99022.64;105146;1272;61962;-22
2022/07/23 07:50:26;;;;;;;3.10;1.20;;;;;;;30.21;34.04;99023.45;104825;1272;75722;-22
2022/07/23 07:52:54;;;;;;;3.70;1.70;;;;;;;30.41;34.44;99022.98;104994;1271;75684;-22
2022/07/23 07:55:21;;;;;;;1.50;1.30;;;;;;;30.61;33.36;99016.53;104743;1274;73934;-22
2022/07/23 07:57:49;;;;;;;2.00;1.40;;;;;;;30.71;32.88;99013.16;104959;1274;62048;-22
2022/07/23 08:00:16;;;;;;;1.20;0.90;;;;;;;30.73;31.10;99016.02;105029;1272;63058;-22
2022/07/23 08:02:47;;;;;;;3.90;1.50;;;;;;;30.69;32.03;99009.16;104696;1276;74812;-23
2022/07/23 08:05:22;;;;;;;3.00;1.10;;;;;;;30.82;32.33;99013.92;104681;1272;76162;-22
2022/07/23 08:07:55;;;;;;;1.80;1.10;;;;;;;30.78;32.06;99010.93;104942;1272;74439;-22
2022/07/23 08:10:23;;;;;;;1.50;1.30;;;;;;;30.49;32.30;99010.88;104611;1274;61215;-23
2022/07/23 08:12:56;;;;;;;1.60;1.10;;;;;;;30.16;31.26;99014.98;104858;1272;62810;-23
2022/07/23 08:15:25;;;;;;;2.20;1.40;;;;;;;30.28;31.99;99018.77;104694;1271;75621;-22
2022/07/23 08:17:53;;;;;;;1.20;1.10;;;;;;;30.11;32.33;99021.38;104780;1271;76825;-22
2022/07/23 08:20:21;;;;;;;1.10;1.00;;;;;;;30.45;32.94;99020.10;104965;1271;75750;-22
2022/07/23 08:22:56;;;;;;;2.10;1.00;;;;;;;30.60;31.63;99024.30;104737;1273;63136;-23
2022/07/23 08:25:23;;;;;;;2.00;1.00;;;;;;;30.70;30.63;99022.60;104752;1274;61805;-24
2022/07/23 08:27:51;;;;;;;1.30;1.20;;;;;;;30.90;31.59;99023.58;104924;1273;75544;-22
2022/07/23 08:30:19;;;;;;;1.60;1.10;;;;;;;30.94;31.51;99025.38;104699;1271;76806;-22
2022/07/23 08:33:03;;;;;;;2.20;1.20;;;;;;;30.98;31.53;99022.33;104766;1272;74159;-22
2022/07/23 08:35:38;;;;;;;7.90;1.30;;;;;;;31.12;30.49;99019.55;104796;1273;62770;-23
2022/07/23 08:38:07;;;;;;;1.90;1.20;;;;;;;30.84;30.46;99023.82;104936;1272;62767;-22
2022/07/23 08:40:37;;;;;;;3.50;1.40;;;;;;;31.04;31.46;99021.77;104656;1273;76654;-22
2022/07/23 08:43:11;;;;;;;1.90;1.50;;;;;;;31.31;31.63;99020.90;104647;1273;75995;-22
2022/07/23 08:45:43;;;;;;;3.40;1.40;;;;;;;31.29;30.24;99014.43;104745;1271;75353;-23
2022/07/23 08:48:17;;;;;;;1.30;1.10;;;;;;;31.22;31.01;99012.75;104739;1271;61826;-22
2022/07/23 08:50:49;;;;;;;1.20;1.10;;;;;;;31.47;31.25;99007.34;104764;1274;62871;-22
2022/07/23 08:53:17;;;;;;;3.20;1.20;;;;;;;31.39;30.58;99002.84;104776;1271;75570;-22
2022/07/23 08:55:45;;;;;;;1.20;1.10;;;;;;;31.62;30.42;99006.95;104755;1274;75818;-22
2022/07/23 08:58:13;;;;;;;1.50;1.20;;;;;;;31.82;30.04;99009.17;104765;1271;75293;-23
2022/07/23 09:00:41;;;;;;;3.00;1.30;;;;;;;32.02;29.66;99011.17;105111;1272;61154;-23
2022/07/23 09:03:17;;;;;;;2.60;1.20;;;;;;;32.18;28.13;99008.50;105123;1272;63050;-23
2022/07/23 09:05:45;;;;;;;2.50;1.20;;;;;;;32.13;28.37;99006.73;104631;1272;75542;-23
2022/07/23 09:08:16;;;;;;;3.30;1.10;;;;;;;31.33;28.49;99006.73;104802;1272;76878;-23
2022/07/23 09:11:05;;;;;;;1.50;1.40;;;;;;;30.09;30.29;99004.92;104661;1273;75379;-23
2022/07/23 09:13:33;;;;;;;1.40;1.20;;;;;;;31.11;30.91;99003.70;104637;1273;62253;-23
2022/07/23 09:16:02;;;;;;;4.10;1.00;;;;;;;31.65;30.51;99005.45;104778;1271;63132;-24
2022/07/23 09:18:38;;;;;;;3.20;1.00;;;;;;;32.08;29.25;99010.42;104630;1271;76770;-24
2022/07/23 09:21:07;;;;;;;2.20;1.10;;;;;;;32.30;28.37;99011.80;104659;1271;76160;-23
2022/07/23 09:23:49;;;;;;;1.20;1.10;;;;;;;31.72;29.25;99011.52;104735;1271;75479;-23
2022/07/23 09:26:40;;;;;;;1.20;0.90;;;;;;;32.19;28.92;99008.77;104734;1274;61148;-23
2022/07/23 09:29:20;;;;;;;1.20;1.10;;;;;;;32.40;28.13;99008.52;104456;1273;61814;-23
2022/07/23 09:31:51;;;;;;;2.90;1.20;;;;;;;32.63;27.14;99008.54;104992;1271;76660;-23
2022/07/23 09:34:25;;;;;;;2.00;1.20;;;;;;;32.79;26.70;99003.66;104624;1273;75888;-23
2022/07/23 09:36:57;;;;;;;12.10;1.60;;;;;;;32.81;26.07;99002.45;104672;1273;75090;-23
2022/07/23 09:39:29;;;;;;;2.00;1.20;;;;;;;32.86;26.22;99000.14;104659;1271;61684;-23
2022/07/23 09:41:57;;;;;;;3.30;1.10;;;;;;;33.19;26.19;99003.42;104668;1271;63088;-23
2022/07/23 09:44:24;;;;;;;3.30;1.00;;;;;;;33.50;27.47;99006.11;104710;1271;76670;-23
2022/07/23 09:46:59;;;;;;;1.80;1.10;;;;;;;33.96;26.01;99003.13;104620;1271;75833;-24
2022/07/23 09:49:26;;;;;;;2.00;1.00;;;;;;;34.07;26.50;99007.38;104669;1272;74384;-23
2022/07/23 09:51:58;;;;;;;1.30;1.00;;;;;;;34.36;25.73;99003.57;105128;1271;61536;-23
2022/07/23 09:54:34;;;;;;;3.60;1.10;;;;;;;34.63;25.00;98997.66;104717;1271;63244;-23
2022/07/23 09:57:05;;;;;;;1.20;1.00;;;;;;;34.34;24.80;98989.76;104719;1273;76490;-23
2022/07/23 09:59:35;;;;;;;1.60;0.90;;;;;;;34.03;25.40;98989.96;104670;1273;76941;-23
2022/07/23 10:02:04;;;;;;;1.70;1.00;;;;;;;33.94;25.73;98991.07;104533;1271;75360;-23
2022/07/23 10:04:34;;;;;;;4.50;1.00;;;;;;;34.28;25.39;98991.16;104652;1271;61923;-23
2022/07/23 10:07:12;;;;;;;0.70;0.70;;;;;;;34.32;24.31;98985.56;104746;1271;61107;-23
2022/07/23 10:09:59;;;;;;;1.60;1.00;;;;;;;34.40;25.09;98989.60;104835;1271;75450;-23
2022/07/23 10:15:19;;;;;;;1.10;1.00;;;;;;;34.85;23.52;98977.51;104902;1271;74235;-23
2022/07/23 10:17:48;;;;;;;1.20;1.10;;;;;;;34.78;23.74;98974.99;104768;1272;61146;-23
2022/07/23 10:20:15;;;;;;;1.50;0.90;;;;;;;34.34;23.45;98973.21;104622;1271;61758;-23
2022/07/23 10:23:02;;;;;;;1.10;1.00;;;;;;;34.12;24.50;98969.96;104614;1273;75969;-23
2022/07/23 10:25:41;;;;;;;1.50;1.10;;;;;;;33.77;24.32;98971.50;104649;1272;76133;-23
2022/07/23 10:28:53;;;;;;;2.50;1.40;;;;;;;33.60;24.81;98965.63;104682;1272;74161;-22
2022/07/23 10:31:49;;;;;;;1.40;1.00;;;;;;;34.16;25.26;98965.82;104893;1271;62014;-23
2022/07/23 10:34:44;;;;;;;1.50;1.10;;;;;;;34.21;24.92;98965.34;104616;1272;61023;-23
2022/07/23 10:37:25;;;;;;;1.10;0.90;;;;;;;34.26;25.15;98969.40;104631;1271;76730;-23
2022/07/23 10:40:13;;;;;;;1.40;1.30;;;;;;;33.55;24.69;98971.23;104662;1271;76011;-23
2022/07/23 10:42:41;;;;;;;3.20;1.00;;;;;;;33.68;24.87;98973.40;104682;1272;75252;-23
2022/07/23 10:45:22;;;;;;;2.70;1.30;;;;;;;33.79;24.32;98969.98;104651;1271;61577;-23
2022/07/23 10:47:53;;;;;;;2.20;1.10;;;;;;;33.91;24.38;98960.02;104732;1273;63175;-23
2022/07/23 10:50:30;;;;;;;2.80;1.60;;;;;;;33.96;23.99;98958.92;104790;1272;76284;-23
2022/07/23 10:53:17;;;;;;;2.50;1.20;;;;;;;33.88;24.32;98955.12;104641;1272;77201;-23
2022/07/23 10:55:47;;;;;;;2.20;1.00;;;;;;;33.66;24.39;98956.13;104726;1271;75404;-23
2022/07/23 10:58:23;;;;;;;3.10;1.20;;;;;;;33.66;24.90;98958.39;104823;1271;62986;-23
2022/07/23 11:00:50;;;;;;;1.10;0.80;;;;;;;33.73;24.74;98953.23;104714;1272;61898;-24
2022/07/23 11:03:28;;;;;;;1.10;1.00;;;;;;;33.91;24.25;98950.29;104925;1273;75545;-24
2022/07/23 11:05:55;;;;;;;2.10;1.50;;;;;;;33.68;24.84;98945.53;104611;1274;77053;-24
2022/07/23 11:08:23;;;;;;;2.00;1.50;;;;;;;34.00;24.04;98945.42;104557;1271;73973;-23
2022/07/23 11:11:09;;;;;;;2.90;1.20;;;;;;;34.23;24.20;98941.11;104621;1272;61692;-23
2022/07/23 11:13:47;;;;;;;1.80;1.10;;;;;;;34.43;23.58;98941.05;104687;1271;62053;-24
2022/07/23 11:16:20;;;;;;;5.80;1.20;;;;;;;34.53;24.55;98935.32;104357;1273;76659;-23
2022/07/23 11:18:47;;;;;;;3.50;1.10;;;;;;;34.35;24.88;98934.52;104708;1271;77097;-23
2022/07/23 11:21:20;;;;;;;6.00;1.10;;;;;;;33.33;24.70;98931.07;104594;1272;75348;-23
2022/07/23 11:24:08;;;;;;;2.80;1.00;;;;;;;33.44;26.24;98932.58;104560;1271;61876;-23
2022/07/23 11:26:56;;;;;;;1.40;1.10;;;;;;;34.10;25.29;98934.43;104675;1271;62145;-23
2022/07/23 11:29:33;;;;;;;2.50;1.30;;;;;;;33.96;23.99;98926.71;104617;1271;75585;-24
2022/07/23 11:32:02;;;;;;;1.20;1.10;;;;;;;33.36;24.08;98925.33;104741;1271;76981;-23
2022/07/23 11:34:29;;;;;;;2.20;1.10;;;;;;;33.26;24.41;98920.55;104664;1273;75441;-23
2022/07/23 11:36:57;;;;;;;4.00;1.50;;;;;;;33.17;24.90;98916.05;104570;1271;61110;-24
2022/07/23 11:39:26;;;;;;;2.70;1.20;;;;;;;33.09;24.90;98919.02;104601;1271;61251;-24
2022/07/23 11:41:53;;;;;;;1.10;0.90;;;;;;;33.04;25.67;98920.66;104436;1271;76627;-23